Time;durP1;ratioP1;P1;durP2;ratioP2;P2;SDS_P1;SDS_P2;PMS_P1;PMS_P2;Temp;Humidity;BMP_temperature;BMP_pressure;BME280_temperature;BME280_humidity;BME280_pressure;Samples;Min_cycle;Max_cycle;Signal;HPM_P1;HPM_P2
2022/05/12 00:00:36;;;;;;;10.30;9.40;;;;;;;12.59;90.25;100465.47;5034909;28;20432;-48
2022/05/12 00:03:05;;;;;;;11.20;10.00;;;;;;;12.60;90.33;100467.91;5035261;28;20467;-50
2022/05/12 00:05:35;;;;;;;9.77;8.67;;;;;;;12.61;89.91;100466.88;5035537;28;20468;-50
2022/05/12 00:08:03;;;;;;;10.00;9.07;;;;;;;12.63;89.23;100475.50;5034525;28;20475;-50
2022/05/12 00:10:30;;;;;;;13.07;9.70;;;;;;;12.68;89.38;100480.22;5035147;28;20427;-52
2022/05/12 00:12:59;;;;;;;10.57;8.90;;;;;;;12.67;89.54;100481.25;5035129;28;20434;-45
2022/05/12 00:15:31;;;;;;;11.30;8.97;;;;;;;12.69;89.88;100487.22;5035099;28;20450;-48
2022/05/12 00:18:02;;;;;;;10.03;9.13;;;;;;;12.62;86.36;100489.94;5034499;28;20526;-50
2022/05/12 00:20:29;;;;;;;7.57;7.17;;;;;;;12.44;81.87;100518.44;5035410;28;20434;-50
2022/05/12 00:23:09;;;;;;;7.57;7.17;;;;;;;12.21;84.96;100501.06;5035140;28;20436;-51
2022/05/12 00:25:37;;;;;;;6.97;6.57;;;;;;;12.04;84.71;100510.59;5034857;28;20428;-50
2022/05/12 00:28:05;;;;;;;7.20;6.77;;;;;;;11.98;81.53;100521.31;5034241;28;20479;-50
2022/05/12 00:30:33;;;;;;;7.60;7.00;;;;;;;11.94;76.12;100528.13;5034569;28;20432;-51
2022/05/12 00:33:01;;;;;;;7.13;6.63;;;;;;;11.85;73.54;100548.91;5034731;28;20436;-51
2022/05/12 00:35:28;;;;;;;6.90;6.47;;;;;;;11.87;69.18;100541.50;5034672;28;20438;-54
2022/05/12 00:37:56;;;;;;;6.60;6.10;;;;;;;11.79;68.41;100538.22;5033928;28;20476;-54
2022/05/12 00:40:26;;;;;;;5.90;5.63;;;;;;;11.79;62.90;100540.91;5034220;28;20770;-50
2022/05/12 00:42:55;;;;;;;6.10;5.80;;;;;;;11.78;63.30;100542.75;5034435;28;20467;-47
2022/05/12 00:45:23;;;;;;;5.47;5.27;;;;;;;11.73;63.08;100555.91;5034428;28;20432;-46
2022/05/12 00:47:51;;;;;;;5.50;5.30;;;;;;;11.67;61.83;100562.06;5033668;28;20965;-47
2022/05/12 00:50:20;;;;;;;4.70;4.50;;;;;;;11.48;71.25;100561.03;5033967;28;20432;-47
2022/05/12 00:52:48;;;;;;;4.67;4.57;;;;;;;11.45;71.20;100561.47;5034173;28;20432;-50
2022/05/12 00:55:19;;;;;;;4.23;4.13;;;;;;;11.28;77.50;100567.41;5034873;28;20432;-50
2022/05/12 00:57:51;;;;;;;4.63;4.43;;;;;;;11.23;82.83;100564.56;5034077;28;20486;-49
2022/05/12 01:00:20;;;;;;;5.03;4.83;;;;;;;11.17;84.88;100560.81;5034051;28;20929;-52
2022/05/12 01:02:53;;;;;;;4.93;4.63;;;;;;;11.08;88.73;100575.41;5034707;28;20440;-51
2022/05/12 01:05:23;;;;;;;4.90;4.60;;;;;;;10.98;92.12;100589.16;5034261;28;20428;-53
2022/05/12 01:07:52;;;;;;;5.10;4.90;;;;;;;10.96;91.71;100595.72;5034091;28;20471;-51
2022/05/12 01:10:20;;;;;;;5.83;5.63;;;;;;;10.94;91.77;100592.41;5034053;28;20439;-48
2022/05/12 01:12:49;;;;;;;5.40;5.20;;;;;;;10.94;90.61;100614.59;5034670;28;20515;-49
2022/05/12 01:15:18;;;;;;;5.43;5.03;;;;;;;10.96;88.30;100617.88;5034398;28;20443;-48
2022/05/12 01:17:46;;;;;;;5.47;5.27;;;;;;;10.95;87.33;100626.09;5033966;28;20480;-50
2022/05/12 01:20:15;;;;;;;5.37;5.20;;;;;;;10.89;87.31;100640.22;5034352;28;20432;-51
2022/05/12 01:22:50;;;;;;;5.53;5.33;;;;;;;10.88;82.77;100642.06;5034376;28;20439;-53
2022/05/12 01:25:21;;;;;;;6.30;5.87;;;;;;;10.83;84.12;100651.72;5034496;28;20439;-48
2022/05/12 01:27:49;;;;;;;5.90;5.53;;;;;;;10.92;80.77;100654.00;5033738;28;20460;-50
2022/05/12 01:30:20;;;;;;;5.70;5.37;;;;;;;10.88;82.77;100657.25;5034132;28;21009;-49
2022/05/12 01:32:47;;;;;;;5.33;4.83;;;;;;;10.81;86.14;100669.78;5034276;28;20435;-52
2022/05/12 01:35:18;;;;;;;5.23;4.83;;;;;;;10.77;87.87;100676.50;5034249;28;20446;-51
2022/05/12 01:37:47;;;;;;;4.90;4.70;;;;;;;10.77;86.99;100680.00;5033489;28;20476;-52
2022/05/12 01:40:20;;;;;;;5.33;4.83;;;;;;;10.73;87.87;100702.75;5034322;28;20826;-48
2022/05/12 01:42:49;;;;;;;4.90;4.60;;;;;;;10.74;86.49;100699.06;5034348;28;20669;-50
2022/05/12 01:45:17;;;;;;;5.53;5.23;;;;;;;10.81;84.45;100704.44;5034562;28;20767;-47
2022/05/12 01:47:46;;;;;;;7.60;5.83;;;;;;;10.78;84.21;100705.63;5027659;28;20825;-46
2022/05/12 01:50:14;;;;;;;6.40;6.00;;;;;;;10.83;81.78;100721.88;5033790;28;20458;-50
2022/05/12 01:52:43;;;;;;;6.20;5.90;;;;;;;10.85;82.30;100724.34;5033965;28;20805;-48
2022/05/12 01:55:12;;;;;;;6.33;5.87;;;;;;;10.81;82.85;100718.56;5033851;28;20436;-53
2022/05/12 01:57:43;;;;;;;7.67;7.17;;;;;;;10.86;80.62;100732.16;5033512;28;20476;-51
2022/05/12 02:00:14;;;;;;;7.00;6.67;;;;;;;10.90;79.57;100743.28;5034034;28;20498;-52
2022/05/12 02:02:42;;;;;;;8.20;7.40;;;;;;;10.91;78.98;100750.22;5033883;28;20442;-53
2022/05/12 02:05:11;;;;;;;7.53;6.97;;;;;;;10.88;77.95;100747.97;5033425;28;20442;-50
2022/05/12 02:07:41;;;;;;;6.90;6.60;;;;;;;10.86;75.45;100756.19;5032909;28;20464;-52
2022/05/12 02:10:12;;;;;;;7.03;6.63;;;;;;;10.80;77.09;100762.31;5033596;28;20436;-50
2022/05/12 02:12:41;;;;;;;7.50;7.00;;;;;;;10.73;80.63;100771.28;5034089;28;20436;-51
2022/05/12 02:15:11;;;;;;;7.37;6.97;;;;;;;10.77;77.15;100769.88;5033261;28;20528;-48
2022/05/12 02:17:39;;;;;;;8.30;7.40;;;;;;;10.68;80.49;100774.53;5032678;28;20927;-52
2022/05/12 02:20:10;;;;;;;7.80;7.27;;;;;;;10.65;78.15;100774.94;5033088;28;20447;-51
2022/05/12 02:22:37;;;;;;;8.40;7.77;;;;;;;10.61;78.76;100788.84;5033329;28;20427;-47
2022/05/12 02:25:06;;;;;;;8.13;7.53;;;;;;;10.52;79.34;100798.84;5032967;28;20436;-48
2022/05/12 02:27:35;;;;;;;8.00;7.40;;;;;;;10.49;80.83;100802.72;5032584;28;20468;-53
2022/05/12 02:30:05;;;;;;;8.00;7.20;;;;;;;10.49;76.76;100799.22;5033496;28;20428;-52
2022/05/12 02:32:32;;;;;;;9.23;8.43;;;;;;;10.45;78.37;100806.78;5032916;28;20436;-52
2022/05/12 02:35:00;;;;;;;8.37;7.67;;;;;;;10.45;76.79;100808.66;5032764;28;20446;-48
2022/05/12 02:37:28;;;;;;;8.23;7.70;;;;;;;10.48;76.51;100819.72;5032516;28;20478;-53
2022/05/12 02:39:55;;;;;;;8.90;8.10;;;;;;;10.53;76.54;100819.16;5031974;28;20947;-46
2022/05/12 02:42:23;;;;;;;9.20;8.40;;;;;;;10.57;75.44;100827.59;5029714;28;20436;-52
2022/05/12 02:44:51;;;;;;;10.03;8.07;;;;;;;10.62;77.60;100831.31;5020331;28;20441;-48
2022/05/12 02:47:20;;;;;;;8.43;7.67;;;;;;;10.54;84.01;100837.63;5028055;28;20842;-50
2022/05/12 02:49:47;;;;;;;8.50;7.70;;;;;;;10.61;83.66;100840.34;5031867;28;20436;-50
2022/05/12 02:52:15;;;;;;;9.00;8.03;;;;;;;10.66;83.42;100845.94;5032525;28;20432;-52
2022/05/12 02:54:43;;;;;;;8.73;7.73;;;;;;;10.68;85.00;100856.38;5033031;28;20428;-53
2022/05/12 02:57:10;;;;;;;7.47;6.83;;;;;;;10.69;87.21;100860.72;5032518;28;20474;-49
2022/05/12 02:59:38;;;;;;;8.50;7.77;;;;;;;10.70;86.83;100868.50;5032731;28;20471;-49
2022/05/12 03:02:06;;;;;;;9.27;8.40;;;;;;;10.76;86.47;100881.06;5063185;23;20474;-44
2022/05/12 03:04:35;;;;;;;9.93;7.40;;;;;;;10.77;87.86;100876.56;5044861;28;20461;-43
2022/05/12 03:07:03;;;;;;;7.30;6.80;;;;;;;10.79;88.49;100887.84;5051791;28;20467;-46
2022/05/12 03:09:31;;;;;;;8.07;7.43;;;;;;;10.81;88.68;100891.97;5052166;28;20787;-45
2022/05/12 03:11:59;;;;;;;8.03;7.43;;;;;;;10.82;89.08;100896.31;5051855;28;20550;-46
2022/05/12 03:14:26;;;;;;;9.77;8.80;;;;;;;10.82;89.64;100906.13;5051876;28;20537;-43
2022/05/12 03:16:54;;;;;;;9.30;8.40;;;;;;;10.83;89.77;100902.47;5050728;28;20861;-44
2022/05/12 03:19:23;;;;;;;13.50;8.10;;;;;;;10.70;91.49;100913.03;5051127;28;21299;-44
2022/05/12 03:21:52;;;;;;;11.70;7.40;;;;;;;10.65;91.55;100918.13;5051642;28;20461;-43
2022/05/12 03:24:20;;;;;;;8.03;7.23;;;;;;;10.60;93.22;100918.72;5051897;28;20428;-43
2022/05/12 03:26:48;;;;;;;9.17;7.93;;;;;;;10.71;90.40;100928.03;5051288;28;21018;-46
2022/05/12 03:29:16;;;;;;;7.63;6.97;;;;;;;10.77;92.92;100932.59;5051533;28;20436;-45
2022/05/12 03:31:44;;;;;;;8.73;7.83;;;;;;;10.76;93.23;100941.59;5051421;28;20519;-45
2022/05/12 03:34:12;;;;;;;11.30;9.00;;;;;;;10.80;93.66;100943.69;5051903;28;20530;-44
2022/05/12 03:36:39;;;;;;;8.37;7.57;;;;;;;10.75;96.14;100935.44;5051090;28;20473;-48
2022/05/12 03:39:08;;;;;;;10.27;8.50;;;;;;;10.78;96.55;100939.56;5051536;28;20511;-45
2022/05/12 03:41:36;;;;;;;20.00;8.50;;;;;;;10.82;96.63;100943.50;5051462;28;20461;-49
2022/05/12 03:46:49;;;;;;;9.23;7.20;;;;;;;10.81;97.14;100949.88;5038764;28;20502;-46
2022/05/12 03:49:17;;;;;;;9.03;7.90;;;;;;;10.84;97.13;100952.94;5031571;28;20431;-45
2022/05/12 03:51:45;;;;;;;8.00;7.30;;;;;;;10.87;97.28;100960.56;5031374;28;20460;-43
2022/05/12 03:54:14;;;;;;;8.90;8.07;;;;;;;10.83;97.82;100962.00;5031367;28;20428;-43
2022/05/12 03:56:43;;;;;;;8.67;7.93;;;;;;;10.89;97.68;100976.41;5030943;28;20456;-45
2022/05/12 03:59:11;;;;;;;10.27;8.00;;;;;;;10.93;97.73;100983.81;5031362;28;21019;-45
2022/05/12 04:01:39;;;;;;;11.77;8.20;;;;;;;10.95;97.81;100991.63;5034416;28;20478;-46
2022/05/12 04:04:06;;;;;;;8.60;7.80;;;;;;;10.97;97.93;100984.25;5035004;28;20466;-45
2022/05/12 04:06:35;;;;;;;9.37;8.47;;;;;;;11.00;97.74;100989.19;5034330;28;20455;-48
2022/05/12 04:09:03;;;;;;;8.47;7.63;;;;;;;10.96;98.13;100993.28;5034883;28;20933;-43
2022/05/12 04:11:32;;;;;;;18.03;8.03;;;;;;;10.96;97.72;100994.09;5034790;28;20464;-47
2022/05/12 04:14:00;;;;;;;9.87;8.00;;;;;;;11.00;97.26;101000.72;5035065;28;20432;-47
2022/05/12 04:16:28;;;;;;;16.00;7.13;;;;;;;11.11;96.68;101015.34;5034371;28;20463;-46
2022/05/12 04:18:56;;;;;;;8.43;7.43;;;;;;;11.25;96.74;101017.13;5035488;28;20471;-43
2022/05/12 04:21:24;;;;;;;16.13;8.03;;;;;;;11.42;96.89;101020.31;5035296;28;20460;-43
2022/05/12 04:23:51;;;;;;;8.40;7.57;;;;;;;11.61;97.42;101030.31;5035778;28;20869;-45
2022/05/12 04:26:19;;;;;;;10.07;7.40;;;;;;;11.71;98.52;101040.69;5035305;28;20523;-46
2022/05/12 04:28:48;;;;;;;12.67;7.80;;;;;;;11.79;99.39;101046.69;5035798;28;20439;-43
2022/05/12 04:31:16;;;;;;;9.13;6.97;;;;;;;11.99;99.41;101046.78;5034644;28;20466;-43
2022/05/12 04:36:28;;;;;;;13.87;7.03;;;;;;;12.79;98.79;101049.50;5033873;28;20468;-45
2022/05/12 04:38:59;;;;;;;11.67;7.27;;;;;;;12.91;97.14;101047.88;5034254;28;20436;-43
2022/05/12 04:41:28;;;;;;;10.50;6.63;;;;;;;13.00;95.80;101043.97;5034055;28;20907;-44
2022/05/12 04:43:58;;;;;;;8.90;6.80;;;;;;;13.00;95.28;101059.22;5034256;28;20527;-45
2022/05/12 04:46:26;;;;;;;11.20;7.53;;;;;;;13.16;94.66;101056.19;5033724;28;20904;-43
2022/05/12 04:48:55;;;;;;;10.90;6.83;;;;;;;13.15;93.94;101050.00;5034169;28;20468;-48
2022/05/12 04:51:23;;;;;;;12.60;6.23;;;;;;;13.15;93.20;101060.72;5033922;28;20466;-44
2022/05/12 04:53:51;;;;;;;17.10;7.20;;;;;;;13.05;92.83;101070.16;5034288;28;20809;-43
2022/05/12 04:56:19;;;;;;;13.13;7.70;;;;;;;13.01;93.80;101080.44;5033797;28;20466;-43
2022/05/12 04:58:46;;;;;;;11.37;7.50;;;;;;;12.88;92.79;101082.25;5034044;28;20520;-43
2022/05/12 05:01:15;;;;;;;12.20;7.23;;;;;;;12.84;93.48;101105.13;5033512;28;20575;-43
2022/05/12 05:03:43;;;;;;;10.73;7.00;;;;;;;12.61;94.77;101103.63;5034125;28;20433;-43
2022/05/12 05:06:11;;;;;;;13.87;8.60;;;;;;;12.59;95.25;101097.66;5033730;28;20492;-43
2022/05/12 05:08:39;;;;;;;10.57;7.53;;;;;;;12.96;95.69;101112.34;5033961;28;20436;-43
2022/05/12 05:11:07;;;;;;;9.53;6.87;;;;;;;13.97;97.99;101099.59;5032924;28;20448;-45
2022/05/12 05:13:34;;;;;;;15.93;6.70;;;;;;;15.25;88.42;101110.97;5033312;28;20479;-44
2022/05/12 05:16:03;;;;;;;8.47;5.83;;;;;;;16.70;83.41;101109.50;5033056;28;20531;-46
2022/05/12 05:18:32;;;;;;;13.23;6.70;;;;;;;16.52;74.50;101110.31;5033842;28;20531;-43
2022/05/12 05:21:00;;;;;;;9.63;5.90;;;;;;;17.20;70.55;101128.91;5033349;28;20502;-46
2022/05/12 05:23:28;;;;;;;14.70;6.87;;;;;;;16.72;69.25;101137.88;5033619;28;20440;-43
2022/05/12 05:25:55;;;;;;;11.53;7.20;;;;;;;16.16;70.55;101150.75;5033132;28;20432;-42
2022/05/12 05:28:23;;;;;;;11.07;7.57;;;;;;;15.70;72.14;101165.44;5033733;28;20438;-42
2022/05/12 05:30:51;;;;;;;13.73;7.10;;;;;;;15.25;72.66;101158.50;5033208;28;21027;-43
2022/05/12 05:33:20;;;;;;;15.70;8.00;;;;;;;14.82;76.21;101172.59;5033770;28;20491;-46
2022/05/12 05:35:49;;;;;;;12.97;7.73;;;;;;;14.44;77.63;101174.41;5032985;28;20436;-42
2022/05/12 05:38:18;;;;;;;16.70;7.93;;;;;;;14.11;79.53;101178.97;5033229;28;20433;-43
2022/05/12 05:40:45;;;;;;;11.03;7.57;;;;;;;14.00;83.77;101184.97;5033096;28;20537;-43
2022/05/12 05:43:14;;;;;;;13.00;7.70;;;;;;;13.80;85.40;101185.81;5033397;28;20451;-44
2022/05/12 05:45:42;;;;;;;11.17;7.40;;;;;;;13.93;87.78;101193.03;5033047;28;20433;-45
2022/05/12 05:48:10;;;;;;;14.70;7.57;;;;;;;13.96;87.25;101192.63;5032648;28;20837;-45
2022/05/12 05:53:31;;;;;;;13.67;7.63;;;;;;;14.29;86.66;101196.06;5033169;28;20515;-44
2022/05/12 05:56:01;;;;;;;9.10;6.80;;;;;;;15.02;87.01;101203.91;5032655;28;20498;-45
2022/05/12 05:58:29;;;;;;;14.00;7.63;;;;;;;15.32;82.17;101195.03;5032964;28;20544;-42
2022/05/12 06:00:57;;;;;;;18.00;6.93;;;;;;;15.21;77.96;101208.34;5032512;28;20504;-43
2022/05/12 06:03:25;;;;;;;8.93;7.57;;;;;;;15.04;78.02;101221.44;5032609;28;21028;-44
2022/05/12 06:05:54;;;;;;;11.10;7.53;;;;;;;14.69;78.97;101220.97;5032614;28;20885;-48
2022/05/12 06:08:22;;;;;;;13.33;7.60;;;;;;;14.66;81.76;101232.16;5032964;28;20446;-44
2022/05/12 06:11:03;;;;;;;9.13;7.83;;;;;;;14.81;82.38;101246.09;5032665;28;20787;-46
2022/05/12 06:13:33;;;;;;;9.37;7.60;;;;;;;14.58;79.35;101244.94;5032745;28;20420;-46
2022/05/12 06:16:02;;;;;;;9.70;7.23;;;;;;;14.68;81.11;101256.06;5032627;28;20440;-43
2022/05/12 06:18:30;;;;;;;11.03;7.57;;;;;;;14.68;81.12;101256.91;5032480;28;20524;-45
2022/05/12 06:20:58;;;;;;;14.40;7.63;;;;;;;14.65;79.54;101269.91;5032254;28;20476;-48
2022/05/12 06:23:26;;;;;;;7.70;6.40;;;;;;;14.81;79.19;101270.28;5032357;28;20442;-43
2022/05/12 06:25:55;;;;;;;20.37;7.50;;;;;;;14.89;78.25;101275.44;5032001;28;20429;-45
2022/05/12 06:28:23;;;;;;;12.00;7.63;;;;;;;15.18;78.86;101279.44;5032199;28;20443;-46
2022/05/12 06:30:51;;;;;;;9.13;6.33;;;;;;;15.98;74.98;101284.16;5032069;28;20454;-42
2022/05/12 06:33:22;;;;;;;12.73;6.23;;;;;;;17.28;71.84;101283.03;5032269;28;20443;-45
2022/05/12 06:35:52;;;;;;;11.77;6.73;;;;;;;16.86;64.82;101284.81;5031644;28;20522;-44
2022/05/12 06:38:20;;;;;;;9.13;6.23;;;;;;;17.62;67.04;101295.06;5032290;28;20432;-49
2022/05/12 06:40:47;;;;;;;8.30;6.30;;;;;;;17.77;62.84;101279.25;5031779;28;20516;-45
2022/05/12 06:43:15;;;;;;;9.33;6.70;;;;;;;17.49;65.17;101295.22;5031994;28;21004;-44
2022/05/12 06:45:44;;;;;;;10.50;6.43;;;;;;;17.41;63.06;101303.63;5032277;28;20431;-43
2022/05/12 06:48:12;;;;;;;11.33;7.00;;;;;;;17.92;62.33;101292.34;5031800;28;20447;-45
2022/05/12 06:50:40;;;;;;;11.27;7.20;;;;;;;17.95;60.65;101303.47;5031788;28;20490;-46
2022/05/12 06:53:09;;;;;;;8.50;6.87;;;;;;;18.13;60.98;101303.38;5032255;28;20471;-44
2022/05/12 06:55:37;;;;;;;12.13;7.10;;;;;;;17.79;61.76;101300.63;5032291;28;20436;-44
2022/05/12 06:58:04;;;;;;;12.00;6.93;;;;;;;17.64;61.68;101309.13;5031524;28;20481;-49
2022/05/12 07:00:33;;;;;;;13.57;7.70;;;;;;;16.80;62.38;101312.63;5031780;28;20563;-43
2022/05/12 07:03:02;;;;;;;13.30;6.50;;;;;;;18.07;63.52;101308.91;5032068;28;21008;-43
2022/05/12 07:05:34;;;;;;;8.03;7.17;;;;;;;18.21;63.44;101313.03;5031845;28;20428;-44
2022/05/12 07:08:02;;;;;;;10.03;6.70;;;;;;;18.44;62.33;101321.16;5031192;28;20973;-42
2022/05/12 07:10:30;;;;;;;10.00;7.40;;;;;;;18.03;61.14;101329.31;5031742;28;20574;-42
2022/05/12 07:12:58;;;;;;;8.53;7.20;;;;;;;17.17;61.31;101326.94;5031893;28;20518;-45
2022/05/12 07:15:27;;;;;;;11.83;7.00;;;;;;;17.47;63.23;101343.16;5031978;28;20882;-43
2022/05/12 07:17:57;;;;;;;14.70;7.47;;;;;;;17.35;63.70;101336.88;5031319;28;20968;-47
2022/05/12 07:28:43;;;;;;;9.87;7.33;;;;;;;17.40;64.61;101350.50;5031669;28;20478;-44
2022/05/12 07:31:11;;;;;;;8.67;6.73;;;;;;;17.80;64.15;101357.03;5031715;28;20452;-42
2022/05/12 07:33:41;;;;;;;6.93;6.43;;;;;;;18.48;59.72;101351.22;5031954;28;20458;-42
2022/05/12 07:36:14;;;;;;;10.90;7.73;;;;;;;18.64;56.11;101355.94;5034108;28;20486;-42
2022/05/12 07:38:42;;;;;;;10.67;8.30;;;;;;;18.24;60.29;101372.78;5035740;28;20518;-46
2022/05/12 07:41:12;;;;;;;9.93;7.50;;;;;;;18.42;58.90;101371.06;5034975;28;20506;-45
2022/05/12 07:43:41;;;;;;;12.13;7.20;;;;;;;18.11;59.85;101378.38;5035711;28;20435;-42
2022/05/12 07:46:09;;;;;;;7.97;7.20;;;;;;;17.84;60.91;101370.88;5035114;28;20475;-42
2022/05/12 07:48:38;;;;;;;8.03;7.30;;;;;;;18.10;59.89;101371.31;5035359;28;20462;-42
2022/05/12 07:51:07;;;;;;;11.00;7.70;;;;;;;17.71;60.26;101376.47;5035103;28;20455;-42
2022/05/12 07:53:37;;;;;;;8.40;7.60;;;;;;;17.66;61.54;101393.34;5035356;28;20427;-44
2022/05/12 07:56:05;;;;;;;7.90;7.10;;;;;;;17.64;60.80;101387.34;5034964;28;20427;-47
2022/05/12 07:58:34;;;;;;;8.70;7.00;;;;;;;17.43;62.15;101390.50;5035482;28;20439;-43
2022/05/12 08:01:02;;;;;;;9.80;7.47;;;;;;;17.80;61.58;101394.81;5035213;28;20485;-43
2022/05/12 08:03:29;;;;;;;10.90;7.73;;;;;;;18.04;60.26;101399.25;5035405;28;20451;-43
2022/05/12 08:05:59;;;;;;;18.07;7.70;;;;;;;18.44;60.62;101399.47;5034639;28;20467;-44
2022/05/12 08:08:28;;;;;;;8.00;7.17;;;;;;;18.35;59.20;101395.47;5035088;28;20977;-46
2022/05/12 08:10:57;;;;;;;8.10;7.13;;;;;;;18.57;58.01;101401.16;5034616;28;20960;-42
2022/05/12 08:13:25;;;;;;;12.10;7.20;;;;;;;18.71;58.42;101414.22;5035212;28;20446;-46
2022/05/12 08:15:53;;;;;;;11.30;7.77;;;;;;;18.67;57.78;101406.81;5034613;28;20428;-46
2022/05/12 08:18:23;;;;;;;8.07;7.33;;;;;;;19.00;56.76;101411.63;5034955;28;20431;-43
2022/05/12 08:20:51;;;;;;;11.43;7.07;;;;;;;19.28;55.07;101414.44;5034458;28;20482;-45
2022/05/12 08:23:19;;;;;;;9.10;6.50;;;;;;;19.51;55.94;101417.13;5034785;28;20502;-42
2022/05/12 08:25:48;;;;;;;7.37;6.20;;;;;;;19.54;55.99;101418.53;5034185;28;20426;-45
2022/05/12 08:28:20;;;;;;;8.90;6.40;;;;;;;19.78;54.13;101430.91;5034725;28;20561;-46
2022/05/12 08:30:50;;;;;;;6.27;5.80;;;;;;;19.99;52.62;101427.56;5034262;28;20448;-44
2022/05/12 08:33:18;;;;;;;6.10;5.40;;;;;;;20.02;51.94;101429.78;5034464;28;21032;-44
2022/05/12 08:35:46;;;;;;;8.07;6.40;;;;;;;19.65;53.47;101442.03;5033904;28;20438;-42
2022/05/12 08:38:15;;;;;;;6.53;5.80;;;;;;;19.29;52.12;101438.53;5035039;28;20435;-42
2022/05/12 08:40:52;;;;;;;10.87;6.30;;;;;;;18.82;55.29;101446.91;5034293;28;20455;-45
2022/05/12 08:43:25;;;;;;;7.07;5.80;;;;;;;19.18;54.15;101446.66;5034680;28;20442;-45
2022/05/12 08:45:59;;;;;;;6.37;5.83;;;;;;;19.23;54.72;101457.59;5033281;28;20521;-45
2022/05/12 08:48:28;;;;;;;9.20;5.80;;;;;;;19.73;53.06;101452.47;5025997;28;20419;-45
2022/05/12 08:50:56;;;;;;;8.50;6.30;;;;;;;19.17;52.46;101462.06;5034318;28;20451;-46
2022/05/12 08:53:30;;;;;;;7.10;6.10;;;;;;;19.01;54.56;101460.06;5034536;28;20428;-42
2022/05/12 08:55:59;;;;;;;8.23;5.50;;;;;;;19.47;52.67;101466.53;5033735;28;20463;-44
2022/05/12 08:58:33;;;;;;;6.00;5.50;;;;;;;19.51;52.86;101462.28;5034057;28;20490;-45
2022/05/12 09:01:04;;;;;;;4.97;4.53;;;;;;;19.57;52.66;101469.44;5033938;28;20460;-46
2022/05/12 09:03:48;;;;;;;6.60;5.03;;;;;;;19.63;52.83;101469.31;5034136;28;20437;-44
2022/05/12 09:06:20;;;;;;;5.63;4.90;;;;;;;19.45;52.45;101472.16;5033442;28;20459;-44
2022/05/12 09:08:55;;;;;;;7.37;5.13;;;;;;;19.53;50.95;101471.84;5033756;28;20470;-47
2022/05/12 09:11:31;;;;;;;6.13;5.03;;;;;;;19.73;51.31;101466.84;5033783;28;21058;-42
2022/05/12 09:14:04;;;;;;;4.90;4.60;;;;;;;19.51;51.52;101471.22;5033943;28;20424;-44
2022/05/12 09:16:33;;;;;;;9.10;5.37;;;;;;;18.89;53.47;101470.03;5033484;28;20474;-42
2022/05/12 09:19:02;;;;;;;6.67;5.50;;;;;;;17.74;56.17;101476.63;5033566;28;20432;-42
2022/05/12 09:21:32;;;;;;;5.73;5.17;;;;;;;18.31;56.08;101471.78;5033234;28;20467;-43
2022/05/12 09:24:01;;;;;;;7.03;5.40;;;;;;;18.47;55.88;101482.72;5033891;28;20440;-46
2022/05/12 09:26:38;;;;;;;5.87;5.43;;;;;;;18.41;55.39;101489.06;5033141;28;20471;-45
2022/05/12 09:29:17;;;;;;;6.43;5.93;;;;;;;18.38;56.11;101472.47;5033450;28;20527;-44
2022/05/12 09:31:48;;;;;;;8.87;6.10;;;;;;;18.41;56.39;101478.25;5033093;28;20466;-45
2022/05/12 09:34:22;;;;;;;6.83;6.13;;;;;;;18.01;57.57;101474.47;5033853;28;20925;-41
2022/05/12 09:36:50;;;;;;;7.73;5.23;;;;;;;17.76;58.38;101479.97;5033141;28;20872;-43
2022/05/12 09:39:33;;;;;;;9.30;6.00;;;;;;;18.35;58.56;101486.44;5033383;28;20503;-44
2022/05/12 09:42:02;;;;;;;9.40;6.03;;;;;;;17.85;57.62;101493.97;5032914;28;20533;-47
2022/05/12 09:44:32;;;;;;;7.27;6.03;;;;;;;17.79;58.47;101495.69;5033443;28;20796;-42
2022/05/12 09:47:02;;;;;;;7.37;5.83;;;;;;;18.53;58.73;101487.25;5032854;28;21038;-42
2022/05/12 09:49:33;;;;;;;10.10;5.63;;;;;;;18.86;57.52;101491.28;5025533;28;20515;-42
2022/05/12 09:52:24;;;;;;;5.07;4.50;;;;;;;18.57;56.17;101490.31;5032817;28;20891;-45
2022/05/12 09:55:10;;;;;;;8.67;5.20;;;;;;;18.52;55.72;101487.47;5033161;28;20515;-44
2022/05/12 09:57:48;;;;;;;8.00;5.00;;;;;;;18.48;55.44;101483.56;5032112;28;21042;-42
2022/05/12 10:00:41;;;;;;;5.00;4.50;;;;;;;18.80;53.94;101484.94;5032439;28;20467;-43
2022/05/12 10:09:14;;;;;;;6.67;5.00;;;;;;;19.64;51.46;101489.09;5032780;28;20429;-44
2022/05/12 10:11:48;;;;;;;7.10;5.00;;;;;;;19.75;52.17;101482.81;5032663;28;20494;-43
2022/05/12 10:14:33;;;;;;;5.97;5.00;;;;;;;19.80;51.67;101499.19;5032795;28;20857;-44
2022/05/12 10:17:06;;;;;;;4.90;4.50;;;;;;;20.06;52.56;101497.81;5031985;28;20514;-42
2022/05/12 10:19:37;;;;;;;5.87;5.43;;;;;;;20.32;51.59;101500.78;5032821;28;20507;-48
2022/05/12 10:22:12;;;;;;;8.90;5.33;;;;;;;20.18;50.18;101502.13;5032689;28;20475;-44
2022/05/12 10:24:50;;;;;;;8.07;4.90;;;;;;;20.19;49.69;101503.75;5032876;28;20431;-43
2022/05/12 10:27:29;;;;;;;6.93;5.40;;;;;;;20.11;51.29;101512.25;5032150;28;20468;-45
2022/05/12 10:30:03;;;;;;;6.07;4.57;;;;;;;20.11;50.61;101517.69;5032363;28;20423;-42
2022/05/12 10:32:46;;;;;;;7.70;4.83;;;;;;;20.00;50.50;101515.84;5032509;28;20456;-42
2022/05/12 10:35:20;;;;;;;7.90;4.53;;;;;;;19.85;50.45;101513.66;5032341;28;20426;-42
2022/05/12 10:38:00;;;;;;;4.97;4.40;;;;;;;19.84;50.60;101524.69;5031991;28;20586;-44
2022/05/12 10:40:35;;;;;;;7.30;4.80;;;;;;;19.82;50.08;101535.78;5032019;28;20804;-42
2022/05/12 10:43:21;;;;;;;10.50;5.90;;;;;;;19.56;50.65;101541.66;5032619;28;20477;-45
2022/05/12 10:46:00;;;;;;;8.37;4.60;;;;;;;19.57;51.52;101537.91;5031795;28;20436;-42
2022/05/12 10:48:49;;;;;;;9.47;4.87;;;;;;;19.74;52.01;101538.03;5023978;28;20428;-42
2022/05/12 10:51:29;;;;;;;5.23;4.73;;;;;;;20.25;50.74;101532.59;5032151;28;20543;-42
2022/05/12 10:54:10;;;;;;;6.90;3.90;;;;;;;20.42;49.32;101535.38;5032073;28;20791;-44
2022/05/12 10:56:47;;;;;;;4.53;4.13;;;;;;;20.32;49.80;101530.59;5031670;28;20538;-42
2022/05/12 10:59:34;;;;;;;4.63;4.23;;;;;;;20.50;47.51;101529.56;5031962;28;20522;-48
2022/05/12 11:02:08;;;;;;;7.43;4.87;;;;;;;20.65;48.57;101535.28;5031774;28;20905;-43
2022/05/12 11:04:41;;;;;;;5.83;3.73;;;;;;;20.64;47.20;101536.31;5031991;28;20427;-44
2022/05/12 11:07:14;;;;;;;6.73;4.13;;;;;;;20.10;47.36;101550.44;5031571;28;20550;-44
2022/05/12 11:09:55;;;;;;;6.07;4.23;;;;;;;19.93;49.46;101549.50;5030991;28;20439;-43
2022/05/12 11:12:30;;;;;;;4.90;4.30;;;;;;;20.23;50.62;101550.97;5031688;28;20865;-45
2022/05/12 11:15:04;;;;;;;4.87;4.03;;;;;;;20.16;50.20;101546.75;5031786;28;20522;-44
2022/05/12 11:17:40;;;;;;;4.80;4.40;;;;;;;20.51;50.18;101539.34;5031456;28;20483;-44
2022/05/12 11:20:23;;;;;;;4.57;4.20;;;;;;;20.60;48.79;101550.63;5031467;28;20434;-47
2022/05/12 11:22:58;;;;;;;4.27;3.50;;;;;;;20.85;47.55;101548.34;5031919;28;20825;-42
2022/05/12 11:25:34;;;;;;;4.87;4.27;;;;;;;21.21;48.03;101542.47;5032224;28;20432;-47
2022/05/12 11:31:09;;;;;;;5.17;3.87;;;;;;;21.49;44.03;101530.69;5031731;28;20526;-45
2022/05/12 11:33:40;;;;;;;5.53;4.03;;;;;;;20.93;44.16;101546.09;5032013;28;20427;-42
2022/05/12 11:36:10;;;;;;;4.03;3.63;;;;;;;20.53;45.18;101541.81;5031311;28;20534;-43
2022/05/12 11:38:51;;;;;;;8.10;4.10;;;;;;;20.30;45.34;101543.56;5031762;28;20482;-43
2022/05/12 11:41:42;;;;;;;3.90;3.57;;;;;;;20.26;46.43;101546.97;5031724;28;20463;-44
2022/05/12 11:44:29;;;;;;;5.67;4.20;;;;;;;19.74;46.74;101559.69;5031756;28;20525;-42
2022/05/12 11:47:29;;;;;;;7.83;4.00;;;;;;;19.55;46.08;101558.16;5031230;28;20546;-44
2022/05/12 11:50:18;;;;;;;3.70;3.40;;;;;;;19.67;46.18;101556.25;5027514;28;20449;-43
2022/05/12 11:53:00;;;;;;;4.33;4.00;;;;;;;19.42;46.54;101556.50;5031675;28;20525;-46
2022/05/12 11:55:30;;;;;;;4.50;4.10;;;;;;;19.43;47.77;101543.81;5031280;28;20452;-44
2022/05/12 11:58:03;;;;;;;4.13;3.73;;;;;;;18.89;48.25;101553.81;5030929;28;20502;-43
2022/05/12 12:00:57;;;;;;;7.30;3.97;;;;;;;18.72;47.81;101560.94;5031184;28;20459;-48
2022/05/12 12:03:50;;;;;;;4.40;4.00;;;;;;;18.75;49.34;101558.63;5031244;28;20563;-44